Time;durP1;ratioP1;P1;durP2;ratioP2;P2;SDS_P1;SDS_P2;PMS_P1;PMS_P2;Temp;Humidity;BMP_temperature;BMP_pressure;BME280_temperature;BME280_humidity;BME280_pressure;Samples;Min_cycle;Max_cycle;Signal;HPM_P1;HPM_P2
2022/01/06 04:01:59;;;;;;;21.95;2.58;;;2.30;99.90;;;;;;5296352;23;20414;-75
2022/01/06 04:04:25;;;;;;;26.50;3.95;;;2.30;99.90;;;;;;5013360;28;20124;-75
2022/01/06 04:06:51;;;;;;;21.02;3.50;;;2.30;99.90;;;;;;5013613;28;20032;-76
2022/01/06 04:09:16;;;;;;;21.73;3.58;;;2.20;99.90;;;;;;5013344;28;20074;-75
2022/01/06 04:11:42;;;;;;;22.27;3.05;;;2.20;99.90;;;;;;5001198;28;20548;-75
2022/01/06 04:14:07;;;;;;;23.15;3.88;;;2.20;99.90;;;;;;4993579;28;20042;-76
2022/01/06 04:16:35;;;;;;;26.45;2.80;;;2.20;99.90;;;;;;4995154;28;20077;-76
2022/01/06 04:19:01;;;;;;;19.20;3.25;;;2.20;99.90;;;;;;4993590;28;20129;-76
2022/01/06 04:21:26;;;;;;;21.58;2.88;;;2.10;99.90;;;;;;4993396;28;20046;-76
2022/01/06 04:23:52;;;;;;;24.58;3.22;;;2.10;99.90;;;;;;4993462;28;20043;-76
2022/01/06 04:26:18;;;;;;;27.23;3.63;;;2.00;99.90;;;;;;4993508;28;20038;-76
2022/01/06 04:28:43;;;;;;;24.15;2.83;;;2.00;99.90;;;;;;4994902;28;20570;-76
2022/01/06 04:31:09;;;;;;;19.95;2.70;;;1.90;99.90;;;;;;4993246;28;20093;-76
2022/01/06 04:33:35;;;;;;;17.05;2.78;;;1.90;99.90;;;;;;4993178;28;20084;-77
2022/01/06 04:36:02;;;;;;;21.33;3.33;;;1.80;99.90;;;;;;4993483;28;20121;-77
2022/01/06 04:38:28;;;;;;;23.25;3.65;;;1.80;99.90;;;;;;4993296;28;20384;-76
2022/01/06 04:40:53;;;;;;;25.73;3.80;;;1.80;99.90;;;;;;4992981;28;20041;-76
2022/01/06 04:43:19;;;;;;;25.15;4.25;;;1.80;99.90;;;;;;4993275;28;20046;-76
2022/01/06 04:45:45;;;;;;;23.92;3.60;;;1.80;99.90;;;;;;4993062;28;20042;-77
2022/01/06 04:48:11;;;;;;;20.75;3.20;;;1.80;99.90;;;;;;4992849;28;20053;-76
2022/01/06 04:50:36;;;;;;;25.00;4.60;;;1.70;99.90;;;;;;4992868;28;20038;-76
2022/01/06 04:53:02;;;;;;;23.20;3.20;;;1.70;99.90;;;;;;4992901;28;20101;-76
2022/01/06 04:55:28;;;;;;;18.25;2.85;;;1.60;99.90;;;;;;4994219;28;20116;-76
2022/01/06 04:57:53;;;;;;;20.00;3.15;;;1.60;99.90;;;;;;4976642;28;20497;-76
2022/01/06 05:00:19;;;;;;;29.58;3.58;;;1.60;99.90;;;;;;4993798;28;20034;-76
2022/01/06 05:02:45;;;;;;;25.67;3.03;;;1.50;99.90;;;;;;4992659;28;20074;-76
2022/01/06 05:05:13;;;;;;;22.80;3.15;;;1.50;99.90;;;;;;4992724;28;20041;-77
2022/01/06 05:07:40;;;;;;;26.25;3.30;;;1.50;99.90;;;;;;4992566;28;20491;-76
2022/01/06 05:10:06;;;;;;;18.95;3.00;;;1.40;99.90;;;;;;4992909;28;20398;-77
2022/01/06 05:12:33;;;;;;;18.45;2.95;;;1.40;99.90;;;;;;4992529;28;20129;-76
2022/01/06 05:14:59;;;;;;;17.75;2.50;;;1.40;99.90;;;;;;4976382;28;20058;-76
2022/01/06 05:17:25;;;;;;;21.52;3.20;;;1.40;99.90;;;;;;4992576;28;20046;-76
2022/01/06 05:19:51;;;;;;;22.52;3.25;;;1.30;99.90;;;;;;4992445;28;20097;-76
2022/01/06 05:22:16;;;;;;;17.85;3.53;;;1.30;99.90;;;;;;4992369;28;20443;-76
2022/01/06 05:24:42;;;;;;;25.40;3.88;;;1.20;99.90;;;;;;4992627;28;20092;-76
2022/01/06 05:27:10;;;;;;;20.10;3.55;;;1.20;99.90;;;;;;4992407;28;20502;-76
2022/01/06 05:29:36;;;;;;;23.70;3.78;;;1.20;99.90;;;;;;4992689;28;20046;-76
2022/01/06 05:32:02;;;;;;;19.65;3.17;;;1.20;99.90;;;;;;4992286;28;20125;-75
2022/01/06 05:34:28;;;;;;;19.48;3.60;;;1.20;99.90;;;;;;4992409;28;20468;-76
2022/01/06 05:36:54;;;;;;;26.25;3.85;;;1.20;99.90;;;;;;4992360;28;20120;-75
2022/01/06 05:39:19;;;;;;;22.58;4.10;;;1.20;99.90;;;;;;4995471;28;20050;-76
2022/01/06 05:41:46;;;;;;;20.73;4.10;;;1.20;99.90;;;;;;4996293;28;20133;-76
2022/01/06 05:44:12;;;;;;;22.58;4.00;;;1.20;99.90;;;;;;4996338;28;20092;-76
2022/01/06 05:46:38;;;;;;;22.80;3.35;;;1.10;99.90;;;;;;4996446;28;20043;-77
2022/01/06 05:49:03;;;;;;;29.40;3.90;;;1.10;99.90;;;;;;4996466;28;20557;-77
2022/01/06 05:51:29;;;;;;;20.85;4.82;;;1.10;99.90;;;;;;4996295;28;20486;-77
2022/01/06 05:53:55;;;;;;;30.67;4.32;;;1.10;99.90;;;;;;4996263;28;20065;-77
2022/01/06 05:56:21;;;;;;;36.55;5.85;;;1.10;99.90;;;;;;4996260;28;20046;-77
2022/01/06 05:58:47;;;;;;;21.73;4.38;;;1.10;99.90;;;;;;4996141;28;20054;-77
2022/01/06 06:01:12;;;;;;;23.90;3.88;;;1.10;99.90;;;;;;4979769;28;20114;-77
2022/01/06 06:03:38;;;;;;;18.38;3.08;;;1.10;99.90;;;;;;4996126;28;20145;-77
2022/01/06 06:06:04;;;;;;;25.60;3.67;;;1.00;99.90;;;;;;4996332;28;20422;-76
2022/01/06 06:08:29;;;;;;;23.90;3.47;;;1.00;99.90;;;;;;4997272;28;20047;-76
2022/01/06 06:10:55;;;;;;;26.65;4.05;;;1.00;99.90;;;;;;4996037;28;20053;-76
2022/01/06 06:13:21;;;;;;;17.17;2.97;;;1.00;99.90;;;;;;4997424;28;20493;-76
2022/01/06 06:15:47;;;;;;;22.00;3.63;;;1.00;99.90;;;;;;4995990;28;20070;-76
2022/01/06 06:18:12;;;;;;;20.00;3.42;;;1.00;99.90;;;;;;4995725;28;20502;-76
2022/01/06 06:20:40;;;;;;;21.42;3.38;;;1.00;99.90;;;;;;4995990;28;20106;-76
2022/01/06 06:23:06;;;;;;;24.90;4.40;;;0.90;99.90;;;;;;4995632;28;20481;-76
2022/01/06 06:25:32;;;;;;;25.80;4.35;;;0.90;99.90;;;;;;4995576;28;20042;-77
2022/01/06 06:27:58;;;;;;;16.02;2.97;;;0.90;99.90;;;;;;4995765;28;20034;-76
2022/01/06 06:30:24;;;;;;;24.23;3.45;;;0.90;99.90;;;;;;4997186;28;20521;-77
2022/01/06 06:32:49;;;;;;;18.10;3.35;;;0.90;99.90;;;;;;4996750;28;20491;-76
2022/01/06 06:35:15;;;;;;;22.15;3.08;;;0.90;99.90;;;;;;4979330;28;20482;-76
2022/01/06 06:37:40;;;;;;;28.88;3.80;;;0.90;99.90;;;;;;4995098;28;20065;-77
2022/01/06 06:40:07;;;;;;;26.73;4.65;;;0.90;99.90;;;;;;4994375;28;20043;-76
2022/01/06 06:42:32;;;;;;;26.15;3.90;;;0.90;99.90;;;;;;4994278;28;20065;-76
2022/01/06 06:44:58;;;;;;;25.02;3.38;;;0.90;99.90;;;;;;4978215;28;20038;-76
2022/01/06 06:47:24;;;;;;;21.50;3.38;;;0.90;99.90;;;;;;4978222;28;20120;-76
2022/01/06 06:49:50;;;;;;;25.17;4.63;;;0.90;99.90;;;;;;4994424;28;20053;-76
2022/01/06 06:52:16;;;;;;;22.48;4.18;;;0.90;99.90;;;;;;4994048;28;20057;-76
2022/01/06 06:54:42;;;;;;;25.35;3.65;;;0.90;99.90;;;;;;4994150;28;20070;-76
2022/01/06 06:57:08;;;;;;;21.27;4.40;;;0.90;99.90;;;;;;4977881;28;20034;-77
2022/01/06 06:59:34;;;;;;;17.63;3.33;;;0.90;99.90;;;;;;4994020;28;20084;-78
2022/01/06 07:02:00;;;;;;;30.90;4.55;;;0.90;99.90;;;;;;4993869;28;20046;-76
2022/01/06 07:04:25;;;;;;;23.98;3.70;;;0.90;99.90;;;;;;4995325;28;20506;-76
2022/01/06 07:06:51;;;;;;;20.70;3.90;;;0.90;99.90;;;;;;4993969;28;20044;-76
2022/01/06 07:09:16;;;;;;;21.65;3.78;;;0.90;99.90;;;;;;4993942;28;20517;-75
2022/01/06 07:11:42;;;;;;;22.52;4.53;;;0.90;99.90;;;;;;4995161;28;20053;-76
2022/01/06 07:14:08;;;;;;;32.90;5.03;;;0.90;99.90;;;;;;4993780;28;20121;-76
2022/01/06 07:16:33;;;;;;;25.60;5.50;;;0.90;99.90;;;;;;4993919;28;20034;-76
2022/01/06 07:18:59;;;;;;;39.47;8.10;;;0.80;99.90;;;;;;4993725;28;20042;-76
2022/01/06 07:21:24;;;;;;;32.72;7.07;;;0.80;99.90;;;;;;4993671;28;20050;-77
2022/01/06 07:23:52;;;;;;;35.53;7.95;;;0.90;99.90;;;;;;4977397;28;20039;-76
2022/01/06 07:26:18;;;;;;;56.88;10.60;;;0.80;99.90;;;;;;4994802;28;20458;-75
2022/01/06 07:28:43;;;;;;;41.60;10.00;;;0.80;99.90;;;;;;4993465;28;20042;-77
2022/01/06 07:31:09;;;;;;;47.55;10.52;;;0.80;99.90;;;;;;4993523;28;20085;-77
2022/01/06 07:33:35;;;;;;;39.47;9.52;;;0.80;99.90;;;;;;4993478;28;20406;-77
2022/01/06 07:36:00;;;;;;;39.22;9.13;;;0.80;99.90;;;;;;4993378;28;20119;-74
2022/01/06 07:38:26;;;;;;;33.67;7.95;;;0.80;99.90;;;;;;4994770;28;20046;-76
2022/01/06 07:40:51;;;;;;;34.75;6.20;;;0.80;99.90;;;;;;4977191;28;20060;-76
2022/01/06 07:43:17;;;;;;;30.95;5.72;;;0.80;99.90;;;;;;4994700;28;20142;-76
2022/01/06 07:45:42;;;;;;;37.17;6.10;;;0.80;99.90;;;;;;4993318;28;20469;-77
2022/01/06 07:48:48;;;;;;;26.83;4.88;;;0.80;99.90;;;;;;4993125;28;20501;-77
2022/01/06 07:51:00;;;;;;;37.17;6.07;;;0.80;99.90;;;;;;4988973;28;20038;-77
2022/01/06 07:53:25;;;;;;;20.35;4.20;;;0.80;99.90;;;;;;4992869;28;20049;-76
2022/01/06 07:55:51;;;;;;;26.02;6.30;;;0.80;99.90;;;;;;4992802;28;20049;-77
2022/01/06 07:58:16;;;;;;;34.33;6.05;;;0.70;99.90;;;;;;4992684;28;20136;-77
2022/01/06 08:00:42;;;;;;;32.08;5.47;;;0.70;99.90;;;;;;4992193;28;20116;-77
2022/01/06 08:03:08;;;;;;;29.25;5.93;;;0.70;99.90;;;;;;4994012;28;20040;-77
2022/01/06 08:05:34;;;;;;;24.33;5.53;;;0.70;99.90;;;;;;4992268;28;20097;-75
2022/01/06 08:07:59;;;;;;;28.83;4.85;;;0.70;99.90;;;;;;4991993;28;20426;-75
2022/01/06 08:10:25;;;;;;;23.83;4.55;;;0.80;99.90;;;;;;4992075;28;20379;-75
2022/01/06 08:12:51;;;;;;;19.85;5.22;;;0.80;99.90;;;;;;4993702;28;20042;-74
2022/01/06 08:15:16;;;;;;;26.45;4.75;;;0.80;99.90;;;;;;4992549;28;20034;-76
2022/01/06 08:17:42;;;;;;;35.63;5.20;;;0.90;99.90;;;;;;4992623;28;20039;-77
2022/01/06 08:20:09;;;;;;;24.50;5.88;;;0.90;99.90;;;;;;4992344;28;20038;-77
2022/01/06 08:22:35;;;;;;;30.55;6.40;;;1.00;99.90;;;;;;4992434;28;20069;-77
2022/01/06 08:25:03;;;;;;;32.30;6.03;;;1.00;99.90;;;;;;4992258;28;20042;-76
2022/01/06 08:27:28;;;;;;;30.83;6.47;;;1.10;99.90;;;;;;4992034;28;20092;-75
2022/01/06 08:29:54;;;;;;;27.85;6.93;;;1.10;99.90;;;;;;4992081;28;20050;-75
2022/01/06 08:32:20;;;;;;;32.35;6.85;;;1.10;99.90;;;;;;4991948;28;20050;-75
2022/01/06 08:34:46;;;;;;;27.20;6.72;;;1.20;99.90;;;;;;4991970;28;20049;-75
2022/01/06 08:37:12;;;;;;;30.92;5.55;;;1.20;99.90;;;;;;4992230;28;20046;-75
2022/01/06 08:39:38;;;;;;;34.65;5.57;;;1.30;99.90;;;;;;4991894;28;20105;-75
2022/01/06 08:42:04;;;;;;;34.67;5.70;;;1.50;99.90;;;;;;4992024;28;20492;-75
2022/01/06 08:44:29;;;;;;;27.40;5.50;;;1.60;99.90;;;;;;4991878;28;20048;-76
2022/01/06 08:47:00;;;;;;;31.30;5.13;;;1.70;99.90;;;;;;4993432;28;20034;-75
2022/01/06 08:49:27;;;;;;;22.75;4.72;;;1.80;99.90;;;;;;4991936;28;20053;-76
2022/01/06 08:51:53;;;;;;;35.60;5.28;;;1.90;99.90;;;;;;4991701;28;20060;-76
2022/01/06 08:54:19;;;;;;;28.17;4.60;;;2.20;99.90;;;;;;4991910;28;20121;-76
2022/01/06 08:56:44;;;;;;;33.30;4.28;;;2.50;99.90;;;;;;4975500;28;20057;-74
2022/01/06 08:59:10;;;;;;;25.30;3.25;;;2.70;99.90;;;;;;4991608;28;20454;-75
2022/01/06 09:01:36;;;;;;;24.65;4.40;;;3.10;99.90;;;;;;4991493;28;20046;-75
2022/01/06 09:04:03;;;;;;;31.10;4.10;;;3.30;99.90;;;;;;4991919;28;20050;-76
2022/01/06 09:06:28;;;;;;;29.25;4.35;;;3.50;99.90;;;;;;4991498;28;20038;-76
2022/01/06 09:08:54;;;;;;;27.52;6.47;;;3.60;99.90;;;;;;4991530;28;20486;-76
2022/01/06 09:11:19;;;;;;;28.70;7.28;;;3.60;99.90;;;;;;4991468;28;20050;-76
2022/01/06 09:13:45;;;;;;;23.00;4.80;;;3.30;99.90;;;;;;4990634;28;20042;-76
2022/01/06 09:16:11;;;;;;;30.70;5.10;;;3.10;99.90;;;;;;4991382;28;20072;-76
2022/01/06 09:18:38;;;;;;;27.35;5.05;;;2.90;99.90;;;;;;4991669;28;20165;-76
2022/01/06 09:21:05;;;;;;;28.55;4.53;;;2.80;99.90;;;;;;4991181;28;20112;-77
2022/01/06 09:23:31;;;;;;;26.63;5.40;;;2.70;99.90;;;;;;4991181;28;20034;-77
2022/01/06 09:25:57;;;;;;;30.52;7.57;;;2.60;99.90;;;;;;4991476;28;20392;-76
2022/01/06 09:28:22;;;;;;;28.77;7.45;;;2.50;99.90;;;;;;4991171;28;20053;-75
2022/01/06 09:30:50;;;;;;;36.55;9.07;;;2.50;99.90;;;;;;4991138;28;20057;-77
2022/01/06 09:33:18;;;;;;;39.03;8.55;;;2.50;99.90;;;;;;4991267;28;20038;-77
2022/01/06 09:35:44;;;;;;;35.25;7.53;;;2.60;99.90;;;;;;4991374;28;20051;-76
2022/01/06 09:38:10;;;;;;;29.45;6.50;;;2.60;99.90;;;;;;4991429;28;20085;-77
2022/01/06 09:40:36;;;;;;;29.33;5.85;;;2.60;99.90;;;;;;4992721;28;20046;-76
2022/01/06 09:43:02;;;;;;;25.20;4.80;;;2.70;99.90;;;;;;4991748;28;20125;-76
2022/01/06 09:45:28;;;;;;;21.98;4.10;;;2.70;99.90;;;;;;4991739;28;20035;-77
2022/01/06 09:47:54;;;;;;;22.63;3.83;;;2.70;99.90;;;;;;4991640;28;20046;-77
2022/01/06 09:50:19;;;;;;;24.35;4.25;;;2.70;99.90;;;;;;4991327;28;20046;-77
2022/01/06 09:52:46;;;;;;;28.13;4.95;;;2.80;99.90;;;;;;4991191;28;20554;-76
2022/01/06 09:55:13;;;;;;;23.55;2.97;;;2.90;99.90;;;;;;4991360;28;20042;-76
2022/01/06 09:57:38;;;;;;;24.75;3.33;;;2.90;99.90;;;;;;4992545;28;20121;-76
2022/01/06 10:00:07;;;;;;;12.77;3.08;;;3.00;99.90;;;;;;4991181;28;20137;-76
2022/01/06 10:02:34;;;;;;;22.88;3.60;;;3.00;99.90;;;;;;4991147;28;20058;-77
2022/01/06 10:05:01;;;;;;;18.38;4.25;;;3.10;99.90;;;;;;4991090;28;20042;-77
2022/01/06 10:07:35;;;;;;;19.52;3.63;;;3.10;99.90;;;;;;4991189;28;20117;-76
2022/01/06 10:10:06;;;;;;;18.88;4.70;;;3.20;99.90;;;;;;4991019;28;20042;-76
2022/01/06 10:12:32;;;;;;;18.48;3.63;;;3.20;99.90;;;;;;4991067;28;20501;-76
2022/01/06 10:14:59;;;;;;;29.38;4.25;;;3.30;99.90;;;;;;4992653;28;20125;-76
2022/01/06 10:17:31;;;;;;;20.08;3.42;;;3.30;99.90;;;;;;4991112;28;20463;-76
2022/01/06 10:20:07;;;;;;;15.75;2.80;;;3.40;99.90;;;;;;4991005;28;20109;-76
2022/01/06 10:22:43;;;;;;;19.25;3.92;;;3.50;99.90;;;;;;4991277;28;20440;-76
2022/01/06 10:25:10;;;;;;;21.00;2.88;;;3.60;99.90;;;;;;4995237;28;20054;-76
2022/01/06 10:27:38;;;;;;;19.25;3.90;;;3.70;99.90;;;;;;4994679;28;20046;-77
2022/01/06 10:30:08;;;;;;;20.50;4.07;;;3.80;99.90;;;;;;4994633;28;20050;-76
2022/01/06 10:32:37;;;;;;;23.10;2.90;;;3.90;99.90;;;;;;4978312;28;20125;-76
2022/01/06 10:35:04;;;;;;;15.15;2.67;;;4.10;99.90;;;;;;4995867;28;20046;-75
2022/01/06 10:37:40;;;;;;;20.40;3.22;;;4.10;99.90;;;;;;4994736;28;20047;-75
2022/01/06 10:40:07;;;;;;;21.15;3.22;;;4.20;99.90;;;;;;4995646;28;20038;-75
2022/01/06 10:42:36;;;;;;;16.13;2.65;;;4.30;99.90;;;;;;4994562;28;20152;-75
2022/01/06 10:45:09;;;;;;;21.27;3.15;;;4.30;99.90;;;;;;4994618;28;20525;-76
2022/01/06 10:47:38;;;;;;;13.30;2.35;;;4.40;99.90;;;;;;4994279;28;20057;-75
2022/01/06 10:50:10;;;;;;;15.02;3.00;;;4.50;99.90;;;;;;4994177;28;20046;-75
2022/01/06 10:52:39;;;;;;;20.80;2.75;;;4.60;99.90;;;;;;4994475;28;20402;-75
2022/01/06 10:55:28;;;;;;;23.38;3.42;;;4.70;99.90;;;;;;4994232;28;20124;-75
2022/01/06 10:58:00;;;;;;;18.70;2.88;;;4.90;99.90;;;;;;4994019;28;20053;-75
2022/01/06 11:00:31;;;;;;;11.68;2.17;;;5.00;99.90;;;;;;4993704;28;20121;-76
2022/01/06 11:03:14;;;;;;;22.17;3.67;;;5.10;99.90;;;;;;4994200;28;20058;-76
2022/01/06 11:05:41;;;;;;;14.65;2.83;;;5.20;99.90;;;;;;4995425;28;20137;-75
2022/01/06 11:08:08;;;;;;;23.67;2.78;;;5.40;99.90;;;;;;4994228;28;20096;-74
2022/01/06 11:10:40;;;;;;;25.58;3.40;;;5.50;99.90;;;;;;4979466;28;20038;-73
2022/01/06 11:13:06;;;;;;;18.55;2.75;;;5.60;99.90;;;;;;4978473;28;20070;-77
2022/01/06 11:15:32;;;;;;;13.75;2.10;;;5.80;99.90;;;;;;4994163;28;20050;-75
2022/01/06 11:18:01;;;;;;;22.63;2.85;;;6.10;99.90;;;;;;4994087;28;20394;-76
2022/01/06 11:20:28;;;;;;;17.95;3.58;;;6.30;99.90;;;;;;4995108;28;20042;-76
2022/01/06 11:22:57;;;;;;;19.20;3.75;;;6.40;99.90;;;;;;4995044;28;20038;-76
2022/01/06 11:25:34;;;;;;;15.55;3.72;;;6.50;99.90;;;;;;4994978;28;20049;-75
2022/01/06 11:28:12;;;;;;;24.08;4.63;;;6.60;99.90;;;;;;4977815;28;20049;-75
2022/01/06 11:30:47;;;;;;;21.08;3.42;;;6.60;99.90;;;;;;4993530;28;20042;-76
2022/01/06 11:33:14;;;;;;;21.45;3.70;;;6.60;99.90;;;;;;4994896;28;20049;-76
2022/01/06 11:36:16;;;;;;;26.13;3.15;;;6.80;99.90;;;;;;4992852;28;20073;-76
2022/01/06 11:38:47;;;;;;;16.80;3.40;;;6.80;99.90;;;;;;4977245;28;20061;-75
2022/01/06 11:41:13;;;;;;;18.70;3.80;;;6.80;99.90;;;;;;4977228;28;20069;-76
2022/01/06 11:43:41;;;;;;;17.73;3.15;;;6.90;99.90;;;;;;4993284;28;20038;-77
2022/01/06 11:46:07;;;;;;;22.55;3.55;;;6.90;99.90;;;;;;4993307;28;20038;-76
2022/01/06 11:48:46;;;;;;;25.00;3.60;;;6.90;99.90;;;;;;4993268;28;20042;-76
2022/01/06 11:51:32;;;;;;;18.40;3.00;;;7.00;99.90;;;;;;4993073;28;20129;-76
2022/01/06 11:53:59;;;;;;;17.63;3.28;;;6.90;99.90;;;;;;4992982;28;20054;-75
2022/01/06 11:56:25;;;;;;;16.65;3.70;;;7.10;99.90;;;;;;4993060;28;20121;-75
2022/01/06 11:58:59;;;;;;;26.67;3.33;;;7.10;99.90;;;;;;4992845;28;20034;-76
2022/01/06 12:01:25;;;;;;;25.00;3.55;;;7.10;99.90;;;;;;4993141;28;20042;-76
2022/01/06 12:03:51;;;;;;;14.48;3.40;;;7.10;99.90;;;;;;4994496;28;20044;-76
2022/01/06 12:06:28;;;;;;;15.50;2.88;;;7.10;99.90;;;;;;4992828;28;20045;-76
2022/01/06 12:08:55;;;;;;;20.75;3.03;;;7.20;99.90;;;;;;4992983;28;20133;-77
2022/01/06 12:11:23;;;;;;;20.60;3.22;;;7.30;99.90;;;;;;4992693;28;20050;-76
2022/01/06 12:13:50;;;;;;;17.20;2.83;;;7.30;99.90;;;;;;4993888;28;20046;-76
2022/01/06 12:16:36;;;;;;;13.32;2.40;;;7.30;99.90;;;;;;4992548;28;20046;-76
2022/01/06 12:19:13;;;;;;;14.27;2.42;;;7.40;99.90;;;;;;4992512;28;20076;-77
2022/01/06 12:21:39;;;;;;;15.23;2.58;;;7.50;99.90;;;;;;4992435;28;20053;-77
2022/01/06 12:24:07;;;;;;;16.15;3.00;;;7.50;99.90;;;;;;4992571;28;20050;-77
2022/01/06 12:26:34;;;;;;;14.02;3.38;;;7.50;99.90;;;;;;4992656;28;20450;-76
2022/01/06 12:29:01;;;;;;;12.98;2.10;;;7.50;99.90;;;;;;4992394;28;20526;-78
2022/01/06 12:31:32;;;;;;;12.77;2.25;;;7.50;99.90;;;;;;4992216;28;20128;-76
2022/01/06 12:34:00;;;;;;;10.52;2.40;;;7.70;99.90;;;;;;4992342;28;20050;-76
2022/01/06 12:36:29;;;;;;;15.98;3.08;;;7.60;99.90;;;;;;4993412;28;20073;-77
2022/01/06 12:38:56;;;;;;;23.85;4.03;;;7.70;99.90;;;;;;4992276;28;20114;-76
2022/01/06 12:41:30;;;;;;;14.48;3.75;;;7.60;99.90;;;;;;4992059;28;20100;-76
2022/01/06 12:43:57;;;;;;;19.15;4.13;;;7.60;99.90;;;;;;4992293;28;20415;-76
2022/01/06 12:46:29;;;;;;;18.60;4.22;;;7.60;99.90;;;;;;4991883;28;20505;-75
2022/01/06 12:48:55;;;;;;;19.52;3.60;;;7.70;99.90;;;;;;4991945;28;20061;-76
2022/01/06 12:51:26;;;;;;;19.77;4.03;;;7.80;99.90;;;;;;4975601;28;20047;-76
2022/01/06 12:54:08;;;;;;;19.13;3.90;;;7.80;99.90;;;;;;4993196;28;20383;-76
2022/01/06 12:56:39;;;;;;;17.75;3.28;;;7.90;99.90;;;;;;4991837;28;20042;-76
2022/01/06 12:59:14;;;;;;;13.43;3.63;;;7.90;99.90;;;;;;4991838;28;20050;-76
2022/01/06 13:01:41;;;;;;;20.83;3.47;;;7.90;99.90;;;;;;4991537;28;20038;-76
2022/01/06 13:04:08;;;;;;;14.27;2.92;;;7.90;99.90;;;;;;4991566;28;20038;-75
2022/01/06 13:06:35;;;;;;;13.60;2.25;;;8.00;99.90;;;;;;4991700;28;20502;-76
2022/01/06 13:09:16;;;;;;;17.85;3.05;;;7.90;99.90;;;;;;4992978;28;20053;-76
2022/01/06 13:11:51;;;;;;;15.52;2.47;;;7.90;99.90;;;;;;4991647;28;20061;-77
2022/01/06 13:14:35;;;;;;;15.82;2.70;;;7.80;99.90;;;;;;4991870;28;20151;-76
2022/01/06 13:17:09;;;;;;;18.33;3.58;;;7.70;99.90;;;;;;4991596;28;20053;-77
2022/01/06 13:19:36;;;;;;;17.17;2.85;;;7.50;99.90;;;;;;4975442;28;20371;-77
2022/01/06 13:22:06;;;;;;;18.80;3.20;;;7.40;99.90;;;;;;4991623;28;20046;-76
2022/01/06 13:24:35;;;;;;;14.48;2.38;;;7.60;99.90;;;;;;4993126;28;20047;-76
2022/01/06 13:27:07;;;;;;;16.10;2.53;;;8.00;99.90;;;;;;4991376;28;20061;-75
2022/01/06 13:29:40;;;;;;;17.92;2.53;;;8.10;99.90;;;;;;4991562;28;20351;-76
2022/01/06 13:32:14;;;;;;;17.10;2.30;;;8.20;99.90;;;;;;4991537;28;20379;-76
2022/01/06 13:34:45;;;;;;;16.85;2.40;;;8.30;99.90;;;;;;4991431;28;20096;-76
2022/01/06 13:37:15;;;;;;;16.80;2.58;;;8.40;99.90;;;;;;4991692;28;20546;-76
2022/01/06 13:39:41;;;;;;;14.30;2.15;;;8.50;99.90;;;;;;4991337;28;20078;-76
2022/01/06 13:42:09;;;;;;;13.52;2.53;;;8.50;99.90;;;;;;4975154;28;20082;-76
2022/01/06 13:44:36;;;;;;;12.98;2.08;;;8.20;99.90;;;;;;4975132;28;20051;-75
2022/01/06 13:47:11;;;;;;;17.08;2.78;;;7.80;99.90;;;;;;4991237;28;20037;-76
2022/01/06 13:52:24;;;;;;;22.02;2.70;;;7.20;99.90;;;;;;4991470;28;20050;-76
2022/01/06 13:54:51;;;;;;;16.70;2.50;;;6.90;99.90;;;;;;4991291;28;20073;-75
2022/01/06 13:57:17;;;;;;;15.80;2.90;;;6.70;99.90;;;;;;4991200;28;20057;-76
2022/01/06 13:59:43;;;;;;;16.50;2.25;;;6.60;99.90;;;;;;4994649;28;20050;-77
2022/01/06 14:02:11;;;;;;;18.50;3.05;;;6.50;99.90;;;;;;4995049;28;20049;-74
2022/01/06 14:04:39;;;;;;;16.35;2.17;;;6.50;99.90;;;;;;4995098;28;20070;-76
2022/01/06 14:07:05;;;;;;;21.52;2.65;;;6.40;99.90;;;;;;4995242;28;20042;-77
2022/01/06 14:09:30;;;;;;;19.58;3.75;;;6.50;99.90;;;;;;4996316;28;20042;-77
2022/01/06 14:11:57;;;;;;;12.20;2.53;;;6.50;99.90;;;;;;4995675;28;20061;-76
2022/01/06 14:14:24;;;;;;;21.15;3.28;;;6.30;99.90;;;;;;4994807;28;20046;-77
2022/01/06 14:16:50;;;;;;;12.93;2.25;;;6.60;99.90;;;;;;4994895;28;20085;-74
2022/01/06 14:19:16;;;;;;;14.70;2.88;;;6.90;99.90;;;;;;4994689;28;20109;-76
2022/01/06 14:21:42;;;;;;;15.50;2.42;;;7.20;99.90;;;;;;4994673;28;20586;-76
2022/01/06 14:24:07;;;;;;;16.70;2.60;;;7.40;99.90;;;;;;4995933;28;20064;-76
2022/01/06 14:26:33;;;;;;;17.15;3.35;;;7.50;99.90;;;;;;4995805;28;20038;-75
2022/01/06 14:28:59;;;;;;;19.13;2.95;;;7.40;99.90;;;;;;4995834;28;20093;-75
2022/01/06 14:31:25;;;;;;;14.00;3.10;;;7.40;99.90;;;;;;4978294;28;20050;-77
2022/01/06 14:33:51;;;;;;;15.43;2.55;;;7.30;99.90;;;;;;4994447;28;20050;-77
2022/01/06 14:36:18;;;;;;;18.52;2.80;;;7.10;99.90;;;;;;4994738;28;20372;-77
2022/01/06 14:38:44;;;;;;;14.35;3.17;;;6.80;99.90;;;;;;4995602;28;20042;-76
2022/01/06 14:41:12;;;;;;;19.20;2.97;;;6.50;99.90;;;;;;4994274;28;20046;-76
2022/01/06 14:43:38;;;;;;;23.17;4.43;;;6.30;99.90;;;;;;4994398;28;20050;-76
2022/01/06 14:46:04;;;;;;;23.55;5.03;;;6.20;99.90;;;;;;4978051;28;20403;-76
2022/01/06 14:48:30;;;;;;;27.10;7.00;;;6.10;99.90;;;;;;4994217;28;20085;-76
2022/01/06 14:50:56;;;;;;;20.83;6.63;;;6.10;99.90;;;;;;4994045;28;20066;-76
2022/01/06 14:53:21;;;;;;;28.88;7.82;;;6.00;99.90;;;;;;4994386;28;20398;-76
2022/01/06 14:55:47;;;;;;;25.65;7.10;;;6.00;99.90;;;;;;4977837;28;20505;-76
2022/01/06 14:58:12;;;;;;;24.08;6.57;;;6.00;99.90;;;;;;4993860;28;20038;-76
2022/01/06 15:00:39;;;;;;;25.45;7.00;;;6.00;99.90;;;;;;4977619;28;20047;-76
2022/01/06 15:03:05;;;;;;;26.13;6.32;;;6.00;99.90;;;;;;4977752;28;20093;-76
2022/01/06 15:05:32;;;;;;;19.98;5.75;;;5.90;99.90;;;;;;4994014;28;20055;-76
2022/01/06 15:07:58;;;;;;;23.98;5.35;;;5.90;99.90;;;;;;4994090;28;20078;-76
2022/01/06 15:10:25;;;;;;;18.27;4.10;;;5.90;99.90;;;;;;4992381;28;20081;-76
2022/01/06 15:12:53;;;;;;;14.65;3.10;;;5.80;99.90;;;;;;4993822;28;20507;-76
2022/01/06 15:15:20;;;;;;;17.45;3.03;;;5.70;99.90;;;;;;4993831;28;20074;-76
2022/01/06 15:17:46;;;;;;;15.23;3.83;;;5.60;99.90;;;;;;4993908;28;20398;-76
2022/01/06 15:20:12;;;;;;;14.25;3.10;;;5.50;99.90;;;;;;4993665;28;20398;-76
2022/01/06 15:22:38;;;;;;;17.20;2.97;;;5.50;99.90;;;;;;4993461;28;20042;-76
2022/01/06 15:25:05;;;;;;;12.15;1.83;;;5.40;99.90;;;;;;4993447;28;20534;-76
2022/01/06 15:27:31;;;;;;;15.73;3.75;;;5.30;99.90;;;;;;4993600;28;20038;-76
2022/01/06 15:29:57;;;;;;;20.38;2.97;;;5.30;99.90;;;;;;4993423;28;20104;-76
2022/01/06 15:32:24;;;;;;;12.57;2.60;;;5.20;99.90;;;;;;4993222;28;20042;-76
2022/01/06 15:34:50;;;;;;;14.88;2.20;;;5.20;99.90;;;;;;4993538;28;20125;-76
2022/01/06 15:37:15;;;;;;;9.20;1.92;;;5.20;99.90;;;;;;4993391;28;20523;-76
2022/01/06 15:39:41;;;;;;;18.02;2.90;;;5.10;99.90;;;;;;4994437;28;20116;-75
2022/01/06 15:42:07;;;;;;;12.50;2.00;;;5.00;99.90;;;;;;4995623;28;20109;-75
2022/01/06 15:44:32;;;;;;;14.57;2.25;;;5.00;99.90;;;;;;4994290;28;20115;-76
2022/01/06 15:46:58;;;;;;;13.48;2.83;;;5.00;99.90;;;;;;4993829;28;20031;-75
2022/01/06 15:49:26;;;;;;;10.50;1.95;;;5.00;99.90;;;;;;4977117;28;20197;-75
2022/01/06 15:51:53;;;;;;;11.85;2.38;;;5.00;99.90;;;;;;4993018;28;20042;-75
2022/01/06 15:54:18;;;;;;;19.50;2.92;;;5.00;99.90;;;;;;4993077;28;20042;-76
2022/01/06 15:56:45;;;;;;;20.27;3.10;;;4.90;99.90;;;;;;4993192;28;20053;-76
2022/01/06 15:59:12;;;;;;;19.95;2.17;;;4.80;99.90;;;;;;4994213;28;20170;-76
2022/01/06 16:04:59;;;;;;;14.43;2.78;;;4.80;99.90;;;;;;4992414;28;20057;-76
2022/01/06 16:07:11;;;;;;;16.30;3.35;;;4.70;99.90;;;;;;4992557;28;20638;-76
2022/01/06 16:09:40;;;;;;;11.40;2.60;;;4.70;99.90;;;;;;4992520;28;20046;-76
2022/01/06 16:12:07;;;;;;;11.60;3.13;;;4.60;99.90;;;;;;4992304;28;20050;-75
2022/01/06 16:14:33;;;;;;;15.88;2.90;;;4.60;99.90;;;;;;4992581;28;20073;-76
2022/01/06 16:16:58;;;;;;;14.88;3.28;;;4.60;99.90;;;;;;4975991;28;20439;-76
2022/01/06 16:19:24;;;;;;;15.25;3.25;;;4.50;99.90;;;;;;4992528;28;20046;-76
2022/01/06 16:21:50;;;;;;;17.42;3.00;;;4.50;99.90;;;;;;4992257;28;20625;-76
2022/01/06 16:24:15;;;;;;;12.95;2.30;;;4.40;99.90;;;;;;4991981;28;20109;-76
2022/01/06 16:26:41;;;;;;;13.35;2.88;;;4.40;99.90;;;;;;4993624;28;20061;-76
2022/01/06 16:29:07;;;;;;;18.42;3.00;;;4.40;99.90;;;;;;4993607;28;20035;-76
2022/01/06 16:31:47;;;;;;;20.50;4.25;;;4.30;99.90;;;;;;4993494;28;20455;-76
2022/01/06 16:34:13;;;;;;;18.88;3.63;;;4.30;99.90;;;;;;4992122;28;20057;-76
2022/01/06 16:36:39;;;;;;;15.30;3.95;;;4.30;99.90;;;;;;4992287;28;20386;-75
2022/01/06 16:39:07;;;;;;;12.50;3.20;;;4.20;99.90;;;;;;4992150;28;20512;-76
2022/01/06 16:41:33;;;;;;;16.98;3.47;;;4.20;99.90;;;;;;4993280;28;20042;-76
2022/01/06 16:44:02;;;;;;;12.75;3.38;;;4.20;99.90;;;;;;4991920;28;20043;-76
2022/01/06 16:46:31;;;;;;;15.60;3.72;;;4.20;99.90;;;;;;4993249;28;20046;-77
2022/01/06 16:48:57;;;;;;;16.85;4.60;;;4.20;99.90;;;;;;4992272;28;20046;-75
2022/01/06 16:51:23;;;;;;;19.95;4.20;;;4.20;99.90;;;;;;4991720;28;20133;-76
2022/01/06 16:53:49;;;;;;;16.75;4.97;;;4.20;99.90;;;;;;4991831;28;20129;-75
2022/01/06 16:56:14;;;;;;;23.17;6.18;;;4.20;99.90;;;;;;4991811;28;20498;-76